Time;durP1;ratioP1;P1;durP2;ratioP2;P2;SDS_P1;SDS_P2;PMS_P1;PMS_P2;Temp;Humidity;BMP_temperature;BMP_pressure;BME280_temperature;BME280_humidity;BME280_pressure;Samples;Min_cycle;Max_cycle;Signal;HPM_P1;HPM_P2
2023/11/23 00:02:07;;;;;;;1.55;1.05;;;;;;;-5.97;55.93;99603.19;5035065;28;20028;-58
2023/11/23 00:04:32;;;;;;;2.53;1.30;;;;;;;-5.72;56.11;99650.59;5033016;28;20025;-58
2023/11/23 00:06:58;;;;;;;1.55;1.20;;;;;;;-5.70;55.64;99643.59;5033666;28;20072;-59
2023/11/23 00:09:25;;;;;;;3.95;1.30;;;;;;;-5.70;55.97;99635.78;5034208;28;20424;-54
2023/11/23 00:11:51;;;;;;;1.73;0.93;;;;;;;-5.66;55.99;99637.44;5034084;28;20067;-60
2023/11/23 00:14:17;;;;;;;2.20;1.15;;;;;;;-5.72;55.84;99631.47;5051733;28;20461;-59
2023/11/23 00:16:43;;;;;;;2.20;1.20;;;;;;;-5.68;55.61;99636.59;5051746;28;20043;-58
2023/11/23 00:19:11;;;;;;;2.10;1.27;;;;;;;-5.67;55.99;99627.00;5053605;28;20033;-58
2023/11/23 00:21:37;;;;;;;2.08;1.30;;;;;;;-5.77;55.99;99629.78;5049694;28;20031;-57
2023/11/23 00:24:03;;;;;;;2.75;1.17;;;;;;;-5.92;55.80;99617.00;5033576;28;20038;-56
2023/11/23 00:26:29;;;;;;;1.90;1.15;;;;;;;-5.98;55.70;99614.50;5032181;28;20523;-54
2023/11/23 00:28:54;;;;;;;1.95;1.00;;;;;;;-5.99;55.58;99615.38;5033664;28;20033;-57
2023/11/23 00:31:21;;;;;;;3.35;1.10;;;;;;;-6.34;55.71;99562.97;5034062;28;20029;-58
2023/11/23 00:33:46;;;;;;;1.80;1.00;;;;;;;-6.14;55.50;99596.56;5050335;28;20040;-57
2023/11/23 00:36:13;;;;;;;1.25;0.95;;;;;;;-6.05;55.32;99600.72;5053240;28;20324;-59
2023/11/23 00:38:42;;;;;;;2.10;1.35;;;;;;;-6.36;54.89;99539.56;5052663;28;20037;-59
2023/11/23 00:41:08;;;;;;;2.13;1.10;;;;;;;-6.49;54.84;99506.78;5044562;28;20024;-58
2023/11/23 00:43:35;;;;;;;1.60;1.17;;;;;;;-5.95;54.56;99584.03;5033209;28;20033;-58
2023/11/23 00:46:02;;;;;;;1.38;0.90;;;;;;;-5.82;53.93;99578.59;5032715;28;20437;-57
2023/11/23 00:48:28;;;;;;;1.88;1.10;;;;;;;-5.91;53.88;99554.41;5033203;28;20417;-58
2023/11/23 00:50:56;;;;;;;5.07;1.30;;;;;;;-5.79;53.80;99568.97;5033080;28;20029;-58
2023/11/23 00:53:22;;;;;;;1.65;0.93;;;;;;;-5.77;53.84;99569.81;5032901;28;20029;-56
2023/11/23 00:55:49;;;;;;;3.22;1.20;;;;;;;-6.12;53.73;99506.16;5033663;28;20458;-56
2023/11/23 00:58:16;;;;;;;1.95;1.08;;;;;;;-5.80;54.20;99564.66;5052321;28;20028;-57
2023/11/23 01:00:42;;;;;;;1.83;1.08;;;;;;;-5.79;54.21;99555.06;5051150;28;20048;-56
2023/11/23 01:03:07;;;;;;;1.85;1.10;;;;;;;-5.76;53.89;99557.66;5034756;28;20033;-56
2023/11/23 01:05:34;;;;;;;1.20;0.75;;;;;;;-5.71;52.82;99557.53;5031694;28;20025;-53
2023/11/23 01:08:00;;;;;;;2.22;1.00;;;;;;;-5.85;52.89;99544.75;5032196;28;20029;-51
2023/11/23 01:10:26;;;;;;;1.23;0.75;;;;;;;-5.86;52.45;99548.25;5033254;28;20059;-51
2023/11/23 01:12:52;;;;;;;1.35;0.70;;;;;;;-5.88;51.99;99547.44;5050287;28;20049;-53
2023/11/23 01:15:17;;;;;;;1.65;0.90;;;;;;;-5.85;52.16;99549.97;5052035;28;20020;-56
2023/11/23 01:17:43;;;;;;;2.75;0.73;;;;;;;-6.15;52.02;99474.91;5052156;28;20090;-59
2023/11/23 01:20:09;;;;;;;1.58;0.80;;;;;;;-5.78;52.08;99528.97;5052058;28;20025;-54
2023/11/23 01:22:36;;;;;;;0.95;0.77;;;;;;;-5.83;51.56;99524.72;5051714;28;20094;-57
2023/11/23 01:25:06;;;;;;;0.80;0.60;;;;;;;-5.94;51.05;99520.59;5037826;28;20086;-56
2023/11/23 01:27:32;;;;;;;2.30;0.88;;;;;;;-6.17;50.75;99491.50;5032683;28;20052;-57
2023/11/23 01:29:58;;;;;;;1.23;0.70;;;;;;;-6.06;51.61;99511.25;5032472;28;20147;-59
2023/11/23 01:32:23;;;;;;;1.08;0.70;;;;;;;-6.08;51.50;99505.22;5034920;28;20033;-56
2023/11/23 01:34:49;;;;;;;1.00;0.50;;;;;;;-6.03;51.90;99510.34;5052178;28;20333;-59
2023/11/23 01:37:14;;;;;;;0.90;0.70;;;;;;;-6.08;52.14;99488.72;5041005;28;20033;-60
2023/11/23 01:39:40;;;;;;;0.80;0.50;;;;;;;-6.08;51.88;99480.88;5040254;28;20033;-58
2023/11/23 01:42:06;;;;;;;1.02;0.63;;;;;;;-5.96;52.20;99496.28;5051923;28;20025;-58
2023/11/23 01:44:32;;;;;;;1.23;0.63;;;;;;;-5.93;51.51;99485.81;5052195;28;20029;-60
2023/11/23 01:46:58;;;;;;;0.93;0.70;;;;;;;-5.92;51.84;99490.13;5052502;28;20033;-58
2023/11/23 01:49:25;;;;;;;1.17;0.60;;;;;;;-5.86;52.14;99494.38;5051892;28;20048;-57
2023/11/23 01:51:51;;;;;;;1.10;0.70;;;;;;;-5.84;51.81;99487.38;5051781;28;20029;-56
2023/11/23 01:54:18;;;;;;;1.25;0.70;;;;;;;-5.86;51.88;99472.66;5048394;28;20029;-56
2023/11/23 01:56:47;;;;;;;0.90;0.50;;;;;;;-5.74;51.20;99495.91;5052381;28;20047;-59
2023/11/23 01:59:15;;;;;;;1.00;0.60;;;;;;;-5.83;51.41;99481.28;5049511;28;20399;-58
2023/11/23 02:01:59;;;;;;;0.90;0.55;;;;;;;-6.06;51.84;99437.41;5051770;28;20481;-59
2023/11/23 02:04:25;;;;;;;0.73;0.60;;;;;;;-5.89;51.58;99488.34;5052029;28;20116;-56
2023/11/23 02:06:51;;;;;;;1.20;0.70;;;;;;;-6.01;51.75;99466.88;5049810;28;20111;-57
2023/11/23 02:09:16;;;;;;;1.13;0.60;;;;;;;-5.98;51.56;99478.94;5049738;28;20102;-56
2023/11/23 02:11:42;;;;;;;0.80;0.60;;;;;;;-6.02;52.01;99474.72;5050485;28;20037;-60
2023/11/23 02:14:08;;;;;;;1.20;0.60;;;;;;;-6.07;52.29;99483.47;5047512;28;20498;-59
2023/11/23 02:16:34;;;;;;;0.85;0.50;;;;;;;-6.06;52.39;99479.13;5032835;28;20029;-57
2023/11/23 02:19:00;;;;;;;1.63;0.60;;;;;;;-6.12;52.25;99454.03;5033900;28;20087;-58
2023/11/23 02:21:45;;;;;;;0.85;0.55;;;;;;;-6.33;52.46;99412.75;5034294;28;20040;-58
2023/11/23 02:24:11;;;;;;;0.90;0.70;;;;;;;-6.06;52.05;99458.25;5036048;28;20364;-60
2023/11/23 02:26:37;;;;;;;1.50;0.60;;;;;;;-6.01;52.65;99443.41;5035630;28;20091;-59
2023/11/23 02:29:04;;;;;;;0.65;0.50;;;;;;;-5.96;52.19;99431.13;5037114;28;20119;-56
2023/11/23 02:31:32;;;;;;;3.63;0.73;;;;;;;-5.93;51.59;99433.66;5053210;28;20069;-54
2023/11/23 02:34:00;;;;;;;1.50;0.63;;;;;;;-5.88;51.92;99430.09;5055312;28;20088;-55
2023/11/23 02:36:26;;;;;;;1.00;0.70;;;;;;;-5.85;51.59;99422.22;5055150;28;20033;-55
2023/11/23 02:38:52;;;;;;;1.15;0.75;;;;;;;-5.81;51.52;99424.75;5055706;28;20116;-58
2023/11/23 02:41:18;;;;;;;0.80;0.60;;;;;;;-5.87;51.60;99410.97;5054840;28;20527;-57
2023/11/23 02:43:43;;;;;;;0.98;0.60;;;;;;;-5.84;51.73;99400.47;5054295;28;20028;-57
2023/11/23 02:46:09;;;;;;;2.45;0.90;;;;;;;-5.92;51.60;99387.59;5055107;28;20025;-59
2023/11/23 02:48:35;;;;;;;1.42;1.00;;;;;;;-5.86;51.89;99400.50;5038866;28;20538;-57
2023/11/23 02:51:00;;;;;;;2.13;1.02;;;;;;;-5.80;52.02;99403.00;5034047;28;20411;-55
2023/11/23 02:53:31;;;;;;;1.50;1.08;;;;;;;-5.76;52.09;99398.59;5036662;28;20086;-54
2023/11/23 02:55:57;;;;;;;2.20;1.10;;;;;;;-5.82;51.82;99383.91;5035065;28;20095;-54
2023/11/23 02:58:23;;;;;;;1.95;0.80;;;;;;;-5.81;52.21;99389.97;5035008;28;20399;-54
2023/11/23 03:00:51;;;;;;;1.33;0.80;;;;;;;-5.80;52.10;99391.69;5034974;28;20108;-56
2023/11/23 03:03:16;;;;;;;1.15;0.73;;;;;;;-5.89;52.25;99363.22;5035587;28;20045;-59
2023/11/23 03:05:42;;;;;;;1.92;0.80;;;;;;;-5.73;51.33;99371.56;5035029;28;20021;-57
2023/11/23 03:08:08;;;;;;;1.15;0.70;;;;;;;-5.97;51.66;99342.50;5035526;28;20096;-55
2023/11/23 03:10:34;;;;;;;1.45;1.00;;;;;;;-5.83;51.79;99373.50;5050458;28;20063;-56
2023/11/23 03:13:00;;;;;;;1.17;0.77;;;;;;;-5.82;51.94;99372.59;5055220;28;20095;-54
2023/11/23 03:15:26;;;;;;;1.58;0.75;;;;;;;-5.85;52.21;99360.50;5054463;28;20033;-58
2023/11/23 03:17:52;;;;;;;1.73;0.80;;;;;;;-5.80;51.55;99357.78;5053101;28;20047;-57
2023/11/23 03:20:17;;;;;;;2.35;0.90;;;;;;;-5.78;52.29;99350.81;5055080;28;20120;-57
2023/11/23 03:22:43;;;;;;;4.43;0.73;;;;;;;-5.77;52.42;99353.38;5038563;28;20033;-57
2023/11/23 03:25:10;;;;;;;0.93;0.60;;;;;;;-5.73;52.48;99341.13;5034393;28;20029;-58
2023/11/23 03:27:38;;;;;;;1.58;1.00;;;;;;;-5.71;52.91;99341.09;5034265;28;20037;-56
2023/11/23 03:30:08;;;;;;;1.25;0.77;;;;;;;-5.74;53.21;99320.31;5033675;28;20083;-58
2023/11/23 03:32:35;;;;;;;1.20;0.88;;;;;;;-5.92;53.34;99293.72;5034704;28;20050;-56
2023/11/23 03:35:00;;;;;;;1.23;0.80;;;;;;;-5.79;52.86;99304.75;5034685;28;20375;-58
2023/11/23 03:37:27;;;;;;;1.52;0.80;;;;;;;-5.93;52.98;99305.91;5040491;28;20428;-57
2023/11/23 03:39:54;;;;;;;1.02;0.60;;;;;;;-5.97;53.47;99295.59;5054212;28;20033;-56
2023/11/23 03:42:20;;;;;;;1.17;0.73;;;;;;;-6.04;53.52;99297.50;5054639;28;20025;-58
2023/11/23 03:44:45;;;;;;;1.42;0.90;;;;;;;-6.04;54.15;99300.09;5054482;28;20059;-56
2023/11/23 03:47:11;;;;;;;2.55;0.77;;;;;;;-6.01;53.95;99301.78;5053900;28;20029;-56
2023/11/23 03:49:37;;;;;;;1.13;0.68;;;;;;;-6.06;54.31;99291.44;5052203;28;20098;-55
2023/11/23 03:52:03;;;;;;;1.83;1.05;;;;;;;-6.11;53.69;99282.88;5054390;28;20029;-54
2023/11/23 03:54:28;;;;;;;2.22;0.98;;;;;;;-6.12;53.66;99291.59;5053824;28;20425;-58
2023/11/23 03:56:54;;;;;;;1.35;0.95;;;;;;;-6.12;53.71;99287.25;5052759;28;20037;-56
2023/11/23 03:59:20;;;;;;;2.10;1.00;;;;;;;-6.10;53.70;99288.06;5052270;28;20349;-61
2023/11/23 04:01:47;;;;;;;1.48;0.90;;;;;;;-6.44;52.92;99241.84;5054302;28;20463;-55
2023/11/23 04:04:13;;;;;;;1.13;0.80;;;;;;;-6.15;53.28;99287.28;5053875;28;20040;-59
2023/11/23 04:06:40;;;;;;;1.45;0.90;;;;;;;-6.11;52.67;99285.50;5053531;28;20054;-55
2023/11/23 04:09:08;;;;;;;2.30;1.20;;;;;;;-6.07;51.75;99274.09;5050634;28;20041;-59
2023/11/23 04:11:34;;;;;;;2.17;1.13;;;;;;;-6.06;51.82;99281.91;5033320;28;20112;-61
2023/11/23 04:14:00;;;;;;;2.13;1.25;;;;;;;-6.07;51.77;99259.34;5033884;28;20075;-56
2023/11/23 04:16:25;;;;;;;1.50;0.95;;;;;;;-6.07;51.66;99267.16;5033325;28;20025;-56
2023/11/23 04:18:51;;;;;;;2.15;1.30;;;;;;;-6.04;50.97;99266.22;5034497;28;20029;-55
2023/11/23 04:21:17;;;;;;;1.55;1.15;;;;;;;-6.13;51.00;99246.44;5033484;28;20030;-55
2023/11/23 04:23:42;;;;;;;1.70;1.27;;;;;;;-6.14;51.11;99255.16;5032872;28;20056;-59
2023/11/23 04:26:08;;;;;;;2.05;1.13;;;;;;;-6.11;50.39;99262.03;5033351;28;20054;-57
2023/11/23 04:28:35;;;;;;;3.03;1.40;;;;;;;-6.13;50.43;99248.19;5033285;28;20099;-56
2023/11/23 04:31:03;;;;;;;2.03;1.17;;;;;;;-6.14;50.30;99246.47;5048862;28;20028;-56
2023/11/23 04:33:29;;;;;;;1.67;0.80;;;;;;;-6.13;50.43;99254.25;5053443;28;20444;-59
2023/11/23 04:35:55;;;;;;;1.08;0.80;;;;;;;-6.14;50.60;99242.13;5053001;28;20068;-55
2023/11/23 04:38:21;;;;;;;1.98;1.00;;;;;;;-6.10;50.47;99235.06;5053377;28;20150;-53
2023/11/23 04:40:46;;;;;;;2.85;1.10;;;;;;;-6.06;50.47;99240.19;5051268;28;20043;-57
2023/11/23 04:43:12;;;;;;;1.20;0.80;;;;;;;-6.06;50.31;99228.91;5053210;28;20170;-57
2023/11/23 04:45:38;;;;;;;1.30;0.70;;;;;;;-6.32;50.65;99160.00;5051620;28;20115;-61
2023/11/23 04:48:04;;;;;;;1.58;0.80;;;;;;;-6.10;50.63;99216.84;5053037;28;20459;-59
2023/11/23 04:50:30;;;;;;;1.42;0.85;;;;;;;-6.11;50.87;99215.13;5042053;28;20083;-55
2023/11/23 04:52:57;;;;;;;1.90;0.90;;;;;;;-6.11;50.88;99209.91;5032300;28;20464;-56
2023/11/23 04:55:22;;;;;;;1.67;1.02;;;;;;;-5.97;50.72;99204.34;5033221;28;20040;-59
2023/11/23 04:57:48;;;;;;;1.05;0.63;;;;;;;-6.20;51.00;99198.81;5033107;28;20037;-58
2023/11/23 05:00:14;;;;;;;1.80;0.88;;;;;;;-6.20;51.22;99205.75;5032954;28;20877;-56
2023/11/23 05:02:43;;;;;;;1.33;0.68;;;;;;;-6.27;51.20;99184.22;5032678;28;20037;-59
2023/11/23 05:05:12;;;;;;;1.67;0.93;;;;;;;-6.17;51.37;99186.59;5033590;28;20037;-58
2023/11/23 05:07:39;;;;;;;1.58;0.82;;;;;;;-6.16;51.13;99180.50;5033050;28;20033;-54
2023/11/23 05:10:08;;;;;;;1.10;0.68;;;;;;;-6.15;51.01;99177.00;5032634;28;20040;-55
2023/11/23 05:12:34;;;;;;;1.50;0.90;;;;;;;-6.11;51.21;99178.63;5033326;28;20547;-52
2023/11/23 05:15:00;;;;;;;1.48;0.80;;;;;;;-6.09;51.16;99172.50;5032612;28;20029;-56
2023/11/23 05:17:25;;;;;;;1.67;0.75;;;;;;;-6.02;51.55;99159.31;5032808;28;20104;-57
2023/11/23 05:19:51;;;;;;;1.20;0.80;;;;;;;-5.96;50.90;99157.41;5033513;28;20041;-59
2023/11/23 05:22:17;;;;;;;1.73;1.05;;;;;;;-5.92;51.41;99148.63;5032319;28;20460;-60
2023/11/23 05:24:43;;;;;;;1.88;0.95;;;;;;;-5.86;50.47;99151.97;5032151;28;20029;-52
2023/11/23 05:27:09;;;;;;;1.52;1.08;;;;;;;-5.85;50.83;99153.66;5032514;28;20045;-53
2023/11/23 05:29:36;;;;;;;1.67;1.00;;;;;;;-5.82;50.77;99135.34;5032694;28;20448;-53
2023/11/23 05:32:02;;;;;;;1.50;0.80;;;;;;;-5.88;50.66;99132.91;5032448;28;20037;-54
2023/11/23 05:34:27;;;;;;;3.28;1.00;;;;;;;-5.76;50.75;99141.28;5033672;28;20095;-55
2023/11/23 05:36:53;;;;;;;1.75;0.93;;;;;;;-5.71;50.70;99140.28;5032884;28;20037;-54
2023/11/23 05:39:19;;;;;;;1.58;0.95;;;;;;;-5.80;51.11;99128.34;5032395;28;20029;-57
2023/11/23 05:41:45;;;;;;;2.03;1.00;;;;;;;-5.79;50.74;99137.88;5031817;28;20407;-54
2023/11/23 05:44:11;;;;;;;1.52;0.95;;;;;;;-5.81;51.20;99142.28;5031831;28;20029;-59
2023/11/23 05:46:36;;;;;;;1.92;1.02;;;;;;;-5.81;50.84;99126.63;5032248;28;20033;-58
2023/11/23 05:49:02;;;;;;;8.18;1.20;;;;;;;-5.77;51.29;99129.13;5043474;28;20060;-57
2023/11/23 05:51:28;;;;;;;2.22;1.20;;;;;;;-5.74;51.11;99130.81;5051669;28;20120;-59
2023/11/23 05:53:54;;;;;;;1.60;1.05;;;;;;;-5.68;50.76;99141.09;5051406;28;20029;-60
2023/11/23 05:56:19;;;;;;;1.75;1.27;;;;;;;-5.89;51.07;99103.38;5052124;28;20074;-58
2023/11/23 05:58:45;;;;;;;1.80;1.20;;;;;;;-5.78;50.54;99097.91;5051679;28;20392;-60
2023/11/23 06:01:10;;;;;;;1.77;1.10;;;;;;;-5.52;51.06;99132.88;5051557;28;20025;-54
2023/11/23 06:03:37;;;;;;;6.70;1.60;;;;;;;-5.60;51.15;99134.81;5049747;28;20025;-62
2023/11/23 06:06:03;;;;;;;2.88;1.13;;;;;;;-5.64;51.47;99116.63;5050819;28;20033;-59
2023/11/23 06:08:29;;;;;;;2.33;1.40;;;;;;;-5.63;50.97;99107.91;5051786;28;20469;-60
2023/11/23 06:10:55;;;;;;;3.00;1.35;;;;;;;-5.57;51.55;99114.72;5038226;28;20117;-56
2023/11/23 06:13:20;;;;;;;2.88;1.38;;;;;;;-5.59;51.29;99092.19;5031930;28;20459;-57
2023/11/23 06:15:46;;;;;;;3.65;1.48;;;;;;;-5.68;51.80;99075.88;5031909;28;20083;-59
2023/11/23 06:18:11;;;;;;;2.90;1.42;;;;;;;-5.50;52.18;99086.75;5031636;28;20043;-62
2023/11/23 06:20:37;;;;;;;2.45;1.55;;;;;;;-5.44;51.97;99076.13;5032373;28;20036;-55
2023/11/23 06:23:02;;;;;;;2.05;1.05;;;;;;;-5.40;51.36;99069.94;5031624;28;20333;-58
2023/11/23 06:25:28;;;;;;;3.63;1.30;;;;;;;-5.37;51.09;99064.63;5032642;28;20054;-55
2023/11/23 06:27:54;;;;;;;5.10;1.25;;;;;;;-5.33;50.82;99058.41;5031721;28;20044;-53
2023/11/23 06:30:19;;;;;;;2.20;1.05;;;;;;;-5.37;50.80;99035.06;5031063;28;20026;-52
2023/11/23 06:32:45;;;;;;;4.72;1.70;;;;;;;-5.32;50.43;99048.84;5032531;28;20030;-57
2023/11/23 06:35:11;;;;;;;2.15;1.40;;;;;;;-5.62;50.30;98979.22;5031705;28;20034;-53
2023/11/23 06:37:36;;;;;;;1.92;1.20;;;;;;;-5.51;49.64;98997.19;5031404;28;20030;-55
2023/11/23 06:40:03;;;;;;;1.88;0.85;;;;;;;-5.44;49.88;99013.53;5030987;28;20365;-60
2023/11/23 06:42:30;;;;;;;1.80;1.17;;;;;;;-5.41;50.00;99015.19;5031592;28;20105;-55
2023/11/23 06:44:56;;;;;;;4.38;0.93;;;;;;;-5.39;50.31;99000.34;5031812;28;20429;-60
2023/11/23 06:47:22;;;;;;;5.63;1.05;;;;;;;-5.34;49.67;99004.50;5037473;28;20096;-60
2023/11/23 06:49:48;;;;;;;2.97;1.35;;;;;;;-5.32;49.82;99012.31;5034151;28;20509;-60
2023/11/23 06:52:15;;;;;;;4.20;1.60;;;;;;;-5.33;49.81;99005.38;5051004;28;20029;-62
2023/11/23 06:54:40;;;;;;;4.15;1.20;;;;;;;-5.31;50.12;98997.50;5051920;28;20515;-60
2023/11/23 06:57:06;;;;;;;2.30;1.05;;;;;;;-5.27;49.29;98992.16;5049394;28;20108;-62
2023/11/23 06:59:33;;;;;;;2.85;1.08;;;;;;;-5.26;49.44;98985.19;5051559;28;20029;-58
2023/11/23 07:01:59;;;;;;;3.90;1.40;;;;;;;-5.29;49.82;98985.28;5050358;28;20033;-60
2023/11/23 07:04:24;;;;;;;3.72;1.40;;;;;;;-5.39;49.68;98958.63;5051616;28;20063;-61
2023/11/23 07:06:50;;;;;;;2.50;1.45;;;;;;;-5.22;49.85;98982.44;5050470;28;20112;-61
2023/11/23 07:09:17;;;;;;;1.33;0.77;;;;;;;-5.24;49.46;98967.72;5034904;28;20437;-62
2023/11/23 07:11:44;;;;;;;1.95;1.10;;;;;;;-5.16;49.12;98965.75;5035381;28;20045;-62
2023/11/23 07:14:10;;;;;;;1.92;0.82;;;;;;;-5.20;48.66;98961.53;5035389;28;20041;-63
2023/11/23 07:16:36;;;;;;;2.15;0.75;;;;;;;-5.24;49.47;98952.91;5017148;28;20055;-59
2023/11/23 07:19:02;;;;;;;1.77;0.93;;;;;;;-5.30;49.13;98947.06;5036097;28;20036;-60
2023/11/23 07:21:28;;;;;;;2.03;0.90;;;;;;;-5.30;49.19;98932.22;5051870;28;20039;-61
2023/11/23 07:23:54;;;;;;;1.50;1.20;;;;;;;-5.26;49.26;98927.78;5053889;28;20119;-60
2023/11/23 07:26:20;;;;;;;3.58;0.98;;;;;;;-5.13;49.19;98936.94;5054548;28;20376;-60
2023/11/23 07:28:46;;;;;;;1.80;1.05;;;;;;;-5.11;49.01;98922.06;5053700;28;20044;-58
2023/11/23 07:31:12;;;;;;;1.30;0.90;;;;;;;-4.95;48.46;98932.06;5054739;28;20029;-60
2023/11/23 07:33:38;;;;;;;3.75;1.27;;;;;;;-4.79;47.90;98930.66;5055016;28;20352;-61
2023/11/23 07:36:04;;;;;;;2.58;1.00;;;;;;;-4.66;48.40;98923.28;5045831;28;20067;-58
2023/11/23 07:38:30;;;;;;;3.47;1.45;;;;;;;-4.44;47.76;98942.63;5034351;28;20110;-57
2023/11/23 07:40:57;;;;;;;1.67;1.15;;;;;;;-4.36;47.42;98931.00;5034466;28;20159;-60
2023/11/23 07:43:23;;;;;;;3.10;1.13;;;;;;;-4.28;47.71;98928.13;5035683;28;20029;-64
2023/11/23 07:45:50;;;;;;;2.47;1.20;;;;;;;-4.29;47.50;98921.19;5034120;28;20041;-59
2023/11/23 07:48:16;;;;;;;5.03;2.30;;;;;;;-4.25;47.19;98896.66;5032830;28;20025;-62
2023/11/23 07:50:43;;;;;;;2.85;1.35;;;;;;;-4.20;46.96;98884.28;5033386;28;20037;-56
2023/11/23 07:53:09;;;;;;;4.00;1.50;;;;;;;-4.16;47.40;98889.38;5037572;28;20207;-64
2023/11/23 07:55:35;;;;;;;3.65;1.42;;;;;;;-4.20;47.38;98860.75;5039641;28;20040;-62
2023/11/23 07:58:00;;;;;;;1.83;1.30;;;;;;;-4.18;47.08;98847.63;5036872;28;20479;-63
2023/11/23 08:00:27;;;;;;;6.75;1.38;;;;;;;-4.22;46.89;98851.25;5033560;28;20022;-59
2023/11/23 08:02:54;;;;;;;2.17;1.40;;;;;;;-4.28;47.28;98838.41;5035899;28;20021;-62
2023/11/23 08:05:21;;;;;;;2.42;1.58;;;;;;;-4.22;46.99;98825.97;5053128;28;20033;-59
2023/11/23 08:07:47;;;;;;;3.55;1.60;;;;;;;-4.16;47.22;98817.06;5045757;28;20085;-58
2023/11/23 08:10:15;;;;;;;3.15;1.40;;;;;;;-4.20;47.08;98813.69;5033550;28;20056;-58
2023/11/23 08:12:43;;;;;;;2.92;1.42;;;;;;;-4.19;47.41;98804.94;5032848;28;20372;-52
2023/11/23 08:15:12;;;;;;;2.33;1.50;;;;;;;-4.14;47.08;98790.84;5048009;28;20025;-51
2023/11/23 08:17:38;;;;;;;3.40;1.30;;;;;;;-4.48;47.13;98735.44;5052686;28;20040;-58
2023/11/23 08:20:08;;;;;;;2.15;1.35;;;;;;;-4.16;47.20;98774.38;5053123;28;20032;-62
2023/11/23 08:22:38;;;;;;;2.90;1.35;;;;;;;-4.07;47.15;98779.28;5051413;28;20087;-62
2023/11/23 08:25:05;;;;;;;4.72;1.42;;;;;;;-4.07;47.45;98769.66;5032292;28;20183;-60
2023/11/23 08:27:32;;;;;;;3.10;1.42;;;;;;;-4.11;47.11;98741.94;5039551;28;20037;-60
2023/11/23 08:29:57;;;;;;;5.68;1.33;;;;;;;-4.03;46.70;98750.31;5035073;28;20055;-61
2023/11/23 08:32:23;;;;;;;3.20;1.58;;;;;;;-4.06;46.62;98750.44;5052024;28;20029;-57
2023/11/23 08:34:49;;;;;;;3.63;1.80;;;;;;;-4.38;46.96;98678.47;5049280;28;20033;-62
2023/11/23 08:37:15;;;;;;;9.15;3.40;;;;;;;-4.03;46.92;98725.94;5052377;28;20082;-59
2023/11/23 08:39:41;;;;;;;2.40;1.40;;;;;;;-4.00;46.46;98715.38;5035286;28;20029;-53
2023/11/23 08:42:06;;;;;;;6.53;1.65;;;;;;;-4.11;46.67;98710.56;5039486;28;20047;-55
2023/11/23 08:44:32;;;;;;;2.42;1.30;;;;;;;-4.24;46.51;98701.47;5036441;28;20119;-64
2023/11/23 08:47:00;;;;;;;4.85;1.67;;;;;;;-4.41;47.25;98694.28;5051733;28;20068;-60
2023/11/23 08:49:26;;;;;;;3.53;1.35;;;;;;;-4.47;47.18;98685.75;5052685;28;20470;-59
2023/11/23 08:51:52;;;;;;;5.00;1.77;;;;;;;-4.49;47.62;98678.88;5051574;28;20493;-60
2023/11/23 08:54:18;;;;;;;2.55;1.27;;;;;;;-4.45;47.06;98674.41;5035343;28;20055;-59
2023/11/23 08:56:46;;;;;;;2.25;1.50;;;;;;;-4.58;46.95;98664.44;5032586;28;20041;-57
2023/11/23 08:59:12;;;;;;;3.28;2.10;;;;;;;-4.61;47.30;98649.72;5032895;28;20356;-59
2023/11/23 09:01:38;;;;;;;5.57;2.25;;;;;;;-4.54;48.07;98650.34;5032596;28;20060;-59
2023/11/23 09:04:05;;;;;;;3.58;1.73;;;;;;;-4.41;47.15;98652.47;5032471;28;20030;-63
2023/11/23 09:06:30;;;;;;;3.75;1.90;;;;;;;-4.36;46.89;98634.84;5032698;28;20415;-61
2023/11/23 09:09:00;;;;;;;3.38;1.60;;;;;;;-4.25;46.95;98637.91;5040426;28;20021;-63
2023/11/23 09:11:26;;;;;;;3.97;1.73;;;;;;;-4.19;46.48;98635.03;5051988;28;20543;-63
2023/11/23 09:13:52;;;;;;;3.20;1.50;;;;;;;-4.17;46.86;98629.78;5046141;28;20033;-59
2023/11/23 09:16:18;;;;;;;6.25;2.08;;;;;;;-4.26;46.06;98628.38;5052397;28;20466;-62
2023/11/23 09:18:44;;;;;;;5.60;1.80;;;;;;;-4.70;46.92;98574.31;5052956;28;20415;-59
2023/11/23 09:21:11;;;;;;;4.90;2.70;;;;;;;-4.46;47.35;98618.69;5052156;28;20041;-59
2023/11/23 09:23:37;;;;;;;4.10;2.42;;;;;;;-4.37;47.44;98607.00;5048962;28;20025;-60
2023/11/23 09:26:04;;;;;;;4.75;2.70;;;;;;;-4.30;47.21;98590.19;5050540;28;20049;-62
2023/11/23 09:28:30;;;;;;;4.93;2.63;;;;;;;-4.40;46.86;98547.03;5044672;28;20041;-59
2023/11/23 09:30:56;;;;;;;5.47;2.05;;;;;;;-4.37;46.98;98542.56;5041706;28;20094;-59
2023/11/23 09:33:22;;;;;;;6.28;2.35;;;;;;;-4.25;47.06;98577.78;5051776;28;20404;-60
2023/11/23 09:35:48;;;;;;;5.07;2.65;;;;;;;-4.27;46.97;98563.06;5037190;28;20033;-58
2023/11/23 09:38:16;;;;;;;5.70;2.03;;;;;;;-4.35;46.96;98572.09;5033308;28;20041;-60
2023/11/23 09:40:41;;;;;;;3.83;1.90;;;;;;;-4.51;47.31;98556.16;5051742;28;20055;-59
2023/11/23 09:43:09;;;;;;;4.57;1.90;;;;;;;-4.58;48.09;98538.19;5046783;28;20098;-60
2023/11/23 09:45:36;;;;;;;5.95;2.17;;;;;;;-4.52;47.91;98528.34;5047406;28;20021;-59
2023/11/23 09:48:04;;;;;;;6.47;1.98;;;;;;;-4.50;48.01;98517.81;5048825;28;20040;-57
2023/11/23 09:50:30;;;;;;;4.20;1.85;;;;;;;-4.55;47.51;98517.16;5049365;28;20040;-58
2023/11/23 09:52:56;;;;;;;5.45;1.83;;;;;;;-4.64;48.13;98503.56;5050400;28;20158;-58
2023/11/23 09:55:23;;;;;;;2.95;1.50;;;;;;;-4.76;47.93;98499.69;5051185;28;20040;-59
2023/11/23 09:57:48;;;;;;;3.00;1.75;;;;;;;-4.80;48.73;98492.00;5046870;28;20043;-60
2023/11/23 10:00:15;;;;;;;3.92;1.85;;;;;;;-4.80;47.91;98487.66;5050184;28;20037;-63
2023/11/23 10:02:55;;;;;;;4.25;2.03;;;;;;;-4.82;48.11;98478.16;5040865;28;20254;-63
2023/11/23 10:05:26;;;;;;;4.93;2.05;;;;;;;-4.85;47.66;98473.06;5043626;28;20045;-65
2023/11/23 10:07:54;;;;;;;5.10;2.08;;;;;;;-4.91;47.86;98451.53;5046435;28;20129;-50
2023/11/23 10:10:20;;;;;;;3.35;2.13;;;;;;;-4.92;47.95;98448.97;5034777;28;20029;-54
2023/11/23 10:12:45;;;;;;;3.05;1.52;;;;;;;-4.94;48.09;98441.22;5035647;28;20044;-61
2023/11/23 10:15:12;;;;;;;8.27;1.92;;;;;;;-4.95;47.51;98449.09;5031728;28;20041;-62
2023/11/23 10:17:40;;;;;;;3.60;1.77;;;;;;;-5.03;48.26;98428.50;5033833;28;20037;-58
2023/11/23 10:20:10;;;;;;;3.88;1.92;;;;;;;-5.16;48.15;98396.00;5051629;28;20037;-61
2023/11/23 10:22:40;;;;;;;5.65;2.42;;;;;;;-5.11;48.09;98410.53;5051839;28;20064;-60
2023/11/23 10:25:07;;;;;;;5.28;3.58;;;;;;;-5.04;47.88;98398.09;5038557;28;20034;-61
2023/11/23 10:27:33;;;;;;;3.53;1.95;;;;;;;-5.08;48.54;98401.75;5031979;28;20368;-57
2023/11/23 10:29:59;;;;;;;7.30;2.22;;;;;;;-5.11;48.43;98389.66;5031464;28;20076;-59
2023/11/23 10:32:25;;;;;;;5.82;2.25;;;;;;;-5.10;48.33;98386.13;5035112;28;20097;-61
2023/11/23 10:34:52;;;;;;;4.10;2.10;;;;;;;-5.08;48.23;98376.47;5031734;28;20411;-58
2023/11/23 10:37:22;;;;;;;3.13;1.65;;;;;;;-5.15;48.74;98350.72;5035944;28;20033;-61
2023/11/23 10:39:48;;;;;;;3.17;1.98;;;;;;;-5.06;48.06;98348.59;5044635;28;20091;-61
2023/11/23 10:42:15;;;;;;;4.63;1.60;;;;;;;-5.03;47.64;98338.94;5035431;28;20120;-59
2023/11/23 10:44:41;;;;;;;3.15;1.88;;;;;;;-5.11;48.25;98329.63;5035771;28;20080;-63
2023/11/23 10:47:07;;;;;;;6.90;1.90;;;;;;;-5.26;48.36;98291.13;5034320;28;20121;-62
2023/11/23 10:49:34;;;;;;;5.80;2.20;;;;;;;-5.06;48.25;98319.00;5034154;28;20112;-62
2023/11/23 10:52:00;;;;;;;2.92;1.40;;;;;;;-5.02;47.73;98319.75;5038552;28;20075;-59
2023/11/23 10:54:26;;;;;;;7.80;1.95;;;;;;;-5.13;48.00;98309.75;5034332;28;20025;-60
2023/11/23 10:56:56;;;;;;;5.20;1.70;;;;;;;-5.17;48.31;98310.78;5035749;28;20037;-61
2023/11/23 10:59:23;;;;;;;5.85;2.08;;;;;;;-5.21;48.68;98330.94;5043962;28;20029;-59
2023/11/23 11:01:53;;;;;;;6.97;2.33;;;;;;;-5.19;47.92;98305.63;5043712;28;20380;-57
2023/11/23 11:04:19;;;;;;;4.68;2.20;;;;;;;-5.22;47.86;98293.53;5050675;28;20028;-59
2023/11/23 11:06:48;;;;;;;4.03;2.45;;;;;;;-5.28;48.13;98287.75;5049655;28;20025;-62
2023/11/23 11:09:15;;;;;;;4.95;2.17;;;;;;;-5.26;48.64;98278.91;5051238;28;20029;-58
2023/11/23 11:11:52;;;;;;;6.05;2.40;;;;;;;-5.16;48.76;98273.34;5046503;28;20025;-61
2023/11/23 11:14:18;;;;;;;3.88;2.17;;;;;;;-5.10;48.01;98262.63;5045130;28;20455;-61
2023/11/23 11:16:44;;;;;;;9.32;2.38;;;;;;;-5.14;48.54;98264.50;5043692;28;20112;-57
2023/11/23 11:19:11;;;;;;;4.30;2.13;;;;;;;-5.15;48.20;98251.56;5045204;28;20084;-63
2023/11/23 11:21:44;;;;;;;6.03;1.80;;;;;;;-5.21;48.54;98250.03;5053890;28;20033;-62
2023/11/23 11:24:20;;;;;;;8.00;2.95;;;;;;;-5.24;49.55;98231.91;5046291;28;20033;-60
2023/11/23 11:26:49;;;;;;;4.13;2.00;;;;;;;-5.35;49.58;98209.69;5033706;28;20045;-64
2023/11/23 11:29:16;;;;;;;4.03;2.10;;;;;;;-5.41;50.21;98198.69;5036579;28;20034;-56
2023/11/23 11:31:47;;;;;;;5.03;2.20;;;;;;;-5.52;51.01;98180.88;5035259;28;20045;-63